Terminal Aerodrome Forecast
Issued by NWS Memphis, TN

Home | Current Version | Previous Version | Text Only | Print | Product List | Glossary On
Versions: 1 2 3 4 5 6 7 8 9 10 11 12 13
376
FTUS44 KMEG 221720
TAFJBR
TAF
KJBR 221720Z 2218/2318 23011G17KT P6SM FEW045
     FM230100 21006KT P6SM FEW250
     FM231600 25008KT P6SM FEW040=

USA.gov is the U.S. government's official web portal to all federal, state and local government web resources and services.